createdAt,value
2022-09-28T00:02:40.129Z,15.30
2022-09-28T00:05:29.056Z,15.30
2022-09-28T00:08:17.335Z,15.30
2022-09-28T00:11:07.515Z,15.30
2022-09-28T00:13:59.180Z,15.30
2022-09-28T00:16:48.640Z,15.30
2022-09-28T00:19:36.623Z,15.30
2022-09-28T00:22:24.551Z,15.30
2022-09-28T00:25:12.428Z,15.30
2022-09-28T00:28:00.297Z,15.30
2022-09-28T00:30:48.891Z,15.20
2022-09-28T00:33:40.876Z,15.20
2022-09-28T00:36:29.321Z,15.20
2022-09-28T00:39:19.025Z,15.20
2022-09-28T00:42:15.394Z,15.20
2022-09-28T00:45:03.636Z,15.20
2022-09-28T00:47:53.031Z,15.20
2022-09-28T00:50:43.616Z,15.10
2022-09-28T00:53:34.931Z,15.10
2022-09-28T00:59:41.780Z,15.10
2022-09-28T01:02:29.604Z,15.10
2022-09-28T01:05:19.673Z,15.10
2022-09-28T01:08:10.008Z,15.20
2022-09-28T01:10:58.593Z,15.10
2022-09-28T01:13:46.994Z,15.20
2022-09-28T01:16:43.473Z,15.20
2022-09-28T01:20:29.079Z,15.10
2022-09-28T01:24:10.342Z,15.10
2022-09-28T01:27:15.326Z,15.20
2022-09-28T01:30:07.486Z,15.20
2022-09-28T01:33:02.710Z,15.20
2022-09-28T01:35:56.966Z,15.20
2022-09-28T01:38:49.818Z,15.20
2022-09-28T01:41:40.341Z,15.20
2022-09-28T01:44:33.853Z,15.20
2022-09-28T01:47:24.543Z,15.20
2022-09-28T01:50:16.494Z,15.30
2022-09-28T01:53:13.580Z,15.30
2022-09-28T01:56:07.979Z,15.30
2022-09-28T01:59:01.185Z,15.30
2022-09-28T02:01:56.783Z,15.30
2022-09-28T02:04:50.834Z,15.40
2022-09-28T02:07:43.081Z,15.40
2022-09-28T02:10:39.014Z,15.40
2022-09-28T02:13:31.143Z,15.40
2022-09-28T02:16:26.418Z,15.40
2022-09-28T02:19:18.834Z,15.50
2022-09-28T02:22:23.364Z,15.50
2022-09-28T02:25:18.368Z,15.50
2022-09-28T02:28:08.179Z,15.50
2022-09-28T02:30:56.428Z,15.50
2022-09-28T02:33:45.873Z,15.50
2022-09-28T02:36:35.312Z,15.60
2022-09-28T02:39:23.317Z,15.60
2022-09-28T02:42:21.327Z,15.60
2022-09-28T02:45:18.900Z,15.60
2022-09-28T02:48:31.446Z,15.60
2022-09-28T02:51:40.643Z,15.60
2022-09-28T02:54:52.939Z,15.70
2022-09-28T02:58:01.482Z,15.60
2022-09-28T03:00:58.770Z,15.70
2022-09-28T03:03:51.982Z,15.70
2022-09-28T03:06:46.345Z,15.70
2022-09-28T03:09:40.441Z,15.70
2022-09-28T03:12:29.394Z,15.70
2022-09-28T03:15:24.222Z,15.70
2022-09-28T03:18:12.177Z,15.70
2022-09-28T03:21:03.054Z,15.60
2022-09-28T03:23:51.742Z,15.60
2022-09-28T03:26:39.812Z,15.60
2022-09-28T03:29:31.327Z,15.60
2022-09-28T03:32:21.788Z,15.60
2022-09-28T03:35:11.229Z,15.60
2022-09-28T03:37:58.913Z,15.60
2022-09-28T03:40:56.342Z,15.70
2022-09-28T03:43:44.177Z,15.70
2022-09-28T03:46:33.741Z,15.70
2022-09-28T03:49:26.084Z,15.70
2022-09-28T03:52:14.079Z,15.70
2022-09-28T03:55:01.564Z,15.70
2022-09-28T03:57:56.137Z,15.70
2022-09-28T04:00:43.356Z,15.70
2022-09-28T04:03:31.208Z,15.70
2022-09-28T04:06:18.796Z,15.70
2022-09-28T04:09:06.245Z,15.70
2022-09-28T04:12:03.933Z,15.70
2022-09-28T04:14:54.259Z,15.80
2022-09-28T04:17:41.949Z,15.80
2022-09-28T04:20:41.040Z,15.80
2022-09-28T04:23:32.855Z,15.80
2022-09-28T04:26:22.253Z,15.80
2022-09-28T04:29:16.139Z,15.80
2022-09-28T04:32:12.039Z,15.80
2022-09-28T04:35:01.350Z,15.80
2022-09-28T04:37:48.823Z,15.80
2022-09-28T04:40:36.841Z,15.80
2022-09-28T04:43:24.219Z,15.80
2022-09-28T04:46:12.602Z,15.80
2022-09-28T04:49:10.086Z,15.80
2022-09-28T04:52:18.202Z,15.90
2022-09-28T04:55:09.386Z,15.90
2022-09-28T04:57:56.600Z,15.90
2022-09-28T05:00:43.849Z,15.90
2022-09-28T05:03:50.309Z,15.90
2022-09-28T05:06:48.940Z,15.90
2022-09-28T05:09:38.530Z,15.90
2022-09-28T05:12:26.546Z,15.90
2022-09-28T05:15:15.771Z,16.00
2022-09-28T05:18:03.121Z,16.00
2022-09-28T05:21:02.108Z,16.00
2022-09-28T05:23:50.968Z,16.00
2022-09-28T05:26:40.058Z,16.00
2022-09-28T05:29:32.161Z,16.00
2022-09-28T05:32:41.773Z,16.00
2022-09-28T05:35:39.801Z,16.00
2022-09-28T05:38:27.767Z,16.00
2022-09-28T05:41:16.587Z,16.00
2022-09-28T05:44:04.079Z,16.00
2022-09-28T05:46:54.150Z,16.10
2022-09-28T05:49:41.349Z,16.10
2022-09-28T05:52:28.556Z,16.10
2022-09-28T05:55:15.932Z,16.10
2022-09-28T05:58:11.407Z,16.10
2022-09-28T06:01:25.547Z,16.10
2022-09-28T06:04:20.101Z,16.10
2022-09-28T06:07:12.323Z,16.10
2022-09-28T06:10:03.224Z,16.10
2022-09-28T06:13:22.284Z,16.10
2022-09-28T06:16:11.475Z,16.10
2022-09-28T06:18:59.532Z,16.10
2022-09-28T06:22:16.089Z,16.10
2022-09-28T06:25:11.358Z,16.10
2022-09-28T06:28:01.520Z,16.10
2022-09-28T06:30:50.530Z,16.10
2022-09-28T06:33:42.085Z,16.10
2022-09-28T06:36:31.252Z,16.10
2022-09-28T06:39:19.218Z,16.10
2022-09-28T06:42:06.809Z,16.10
2022-09-28T06:45:13.519Z,16.10
2022-09-28T06:48:15.083Z,16.10
2022-09-28T06:51:03.164Z,16.20
2022-09-28T06:53:55.452Z,16.20
2022-09-28T06:57:00.006Z,16.20
2022-09-28T06:59:47.217Z,16.20
2022-09-28T07:02:35.641Z,16.20
2022-09-28T07:05:43.676Z,16.20
2022-09-28T07:08:53.423Z,16.30
2022-09-28T07:12:00.381Z,16.30
2022-09-28T07:15:41.150Z,16.30
2022-09-28T07:18:32.512Z,16.30
2022-09-28T07:21:29.051Z,16.30
2022-09-28T07:24:21.058Z,16.30
2022-09-28T07:28:18.128Z,16.30
2022-09-28T07:31:35.595Z,16.40
2022-09-28T07:34:43.921Z,16.40
2022-09-28T07:38:17.521Z,16.50
2022-09-28T07:41:12.894Z,16.50
2022-09-28T07:44:06.679Z,16.60
2022-09-28T07:47:13.088Z,16.70
2022-09-28T07:50:34.195Z,16.80
2022-09-28T07:53:36.479Z,16.90
2022-09-28T07:56:49.927Z,17.00
2022-09-28T08:00:54.325Z,17.00
2022-09-28T08:08:51.180Z,17.20
2022-09-28T08:28:35.021Z,17.30
2022-09-28T08:32:01.555Z,17.20
2022-09-28T08:35:16.134Z,17.20
2022-09-28T08:43:03.644Z,17.30
2022-09-28T08:47:51.527Z,17.30
2022-09-28T08:55:29.190Z,17.30
2022-09-28T08:58:28.608Z,17.30
2022-09-28T09:01:44.229Z,17.30
2022-09-28T09:04:37.986Z,17.30
2022-09-28T09:08:18.819Z,17.30
2022-09-28T09:11:22.737Z,17.30
2022-09-28T09:15:06.079Z,17.30
2022-09-28T09:18:09.103Z,17.30
2022-09-28T09:21:44.812Z,17.30
2022-09-28T09:24:50.835Z,17.30
2022-09-28T09:27:56.892Z,17.30
2022-09-28T09:31:01.732Z,17.30
2022-09-28T09:34:41.267Z,17.30
2022-09-28T09:38:25.013Z,17.30
2022-09-28T09:41:46.764Z,17.30
2022-09-28T09:45:39.789Z,17.30
2022-09-28T09:53:06.720Z,17.30
2022-09-28T09:56:02.558Z,17.30
2022-09-28T09:59:24.207Z,17.30
2022-09-28T10:02:28.380Z,17.30
2022-09-28T10:09:24.226Z,17.40
2022-09-28T10:12:22.254Z,17.40
2022-09-28T10:15:24.739Z,17.40
2022-09-28T10:18:33.330Z,17.40
2022-09-28T10:21:59.585Z,17.40
2022-09-28T10:25:00.114Z,17.50
2022-09-28T10:27:55.612Z,17.50
2022-09-28T10:30:45.111Z,17.50
2022-09-28T10:33:35.867Z,17.50
2022-09-28T10:36:26.573Z,17.50
2022-09-28T10:39:33.335Z,17.60
2022-09-28T10:42:25.192Z,17.60
2022-09-28T10:45:26.160Z,17.60
2022-09-28T10:51:56.714Z,17.70
2022-09-28T11:00:48.346Z,17.80
2022-09-28T11:12:59.896Z,18.00
2022-09-28T11:15:53.220Z,18.10
2022-09-28T11:18:54.483Z,18.10
2022-09-28T11:21:46.102Z,18.10
2022-09-28T11:24:41.271Z,18.20
2022-09-28T11:27:40.140Z,18.20
2022-09-28T11:30:44.596Z,18.20
2022-09-28T11:34:09.888Z,18.20
2022-09-28T11:37:43.542Z,18.30
2022-09-28T11:40:51.790Z,18.20
2022-09-28T11:44:09.808Z,18.20
2022-09-28T11:47:41.022Z,18.20
2022-09-28T11:51:03.791Z,18.20
2022-09-28T11:54:02.719Z,18.20
2022-09-28T11:56:59.078Z,18.20
2022-09-28T11:59:59.449Z,18.20
2022-09-28T12:03:26.745Z,18.20
2022-09-28T12:06:45.182Z,18.20
2022-09-28T12:15:05.584Z,18.20
2022-09-28T12:18:09.002Z,18.20
2022-09-28T12:29:12.153Z,18.20
2022-09-28T12:32:30.902Z,18.20
2022-09-28T12:39:18.072Z,18.20
2022-09-28T12:42:33.289Z,18.20
2022-09-28T12:46:12.001Z,18.10
2022-09-28T12:50:36.978Z,18.20
2022-09-28T13:01:07.638Z,18.20
2022-09-28T13:05:12.518Z,18.20
2022-09-28T13:13:20.971Z,18.20
2022-09-28T13:16:17.716Z,18.10
2022-09-28T13:19:13.095Z,18.20
2022-09-28T13:22:14.722Z,18.20
2022-09-28T13:25:08.496Z,18.20
2022-09-28T13:28:02.317Z,18.20
2022-09-28T13:30:51.405Z,18.20
2022-09-28T13:33:42.037Z,18.20
2022-09-28T13:36:47.247Z,18.20
2022-09-28T13:39:52.048Z,18.20
2022-09-28T13:43:10.672Z,18.20
2022-09-28T13:46:07.423Z,18.20
2022-09-28T13:49:07.092Z,18.30
2022-09-28T13:52:06.173Z,18.30
2022-09-28T13:55:15.662Z,18.30
2022-09-28T13:58:13.432Z,18.30
2022-09-28T14:01:07.670Z,18.30
2022-09-28T14:03:58.121Z,18.30
2022-09-28T14:06:54.831Z,18.30
2022-09-28T14:09:47.603Z,18.30
2022-09-28T14:12:50.325Z,18.40
2022-09-28T14:15:46.646Z,18.40
2022-09-28T14:18:35.327Z,18.40
2022-09-28T14:22:12.453Z,18.40
2022-09-28T14:25:11.889Z,18.40
2022-09-28T14:28:14.038Z,18.40
2022-09-28T14:31:10.723Z,18.50
2022-09-28T14:34:01.241Z,18.50
2022-09-28T14:37:08.122Z,18.50
2022-09-28T14:40:13.364Z,18.50
2022-09-28T14:43:36.817Z,18.50
2022-09-28T14:46:39.029Z,18.40
2022-09-28T14:49:51.310Z,18.50
2022-09-28T14:52:42.310Z,18.50
2022-09-28T14:55:35.430Z,18.50
2022-09-28T14:58:26.719Z,18.50
2022-09-28T15:01:21.121Z,18.50
2022-09-28T15:04:14.059Z,18.50
2022-09-28T15:07:01.591Z,18.50
2022-09-28T15:09:51.389Z,18.50
2022-09-28T15:12:39.848Z,18.50
2022-09-28T15:15:33.947Z,18.50
2022-09-28T15:19:06.946Z,18.50
2022-09-28T15:21:59.103Z,18.50
2022-09-28T15:25:00.024Z,18.50
2022-09-28T15:27:54.168Z,18.50
2022-09-28T15:30:41.865Z,18.50
2022-09-28T15:33:49.561Z,18.50
2022-09-28T15:36:41.112Z,18.50
2022-09-28T15:39:34.109Z,18.50
2022-09-28T15:42:22.814Z,18.50
2022-09-28T15:45:26.600Z,18.50
2022-09-28T15:48:31.987Z,18.50
2022-09-28T15:51:21.419Z,18.50
2022-09-28T15:54:19.732Z,18.50
2022-09-28T15:57:33.819Z,18.50
2022-09-28T16:00:29.083Z,18.50
2022-09-28T16:03:29.164Z,18.50
2022-09-28T16:06:16.375Z,18.50
2022-09-28T16:09:03.605Z,18.50
2022-09-28T16:11:51.028Z,18.50
2022-09-28T16:14:39.981Z,18.50
2022-09-28T16:17:33.850Z,18.50
2022-09-28T16:20:32.026Z,18.40
2022-09-28T16:23:24.710Z,18.50
2022-09-28T16:26:18.133Z,18.50
2022-09-28T16:29:10.590Z,18.50
2022-09-28T16:32:41.689Z,18.40
2022-09-28T16:35:32.235Z,18.40
2022-09-28T16:38:21.496Z,18.40
2022-09-28T16:41:10.595Z,18.40
2022-09-28T16:44:02.163Z,18.40
2022-09-28T16:46:49.718Z,18.40
2022-09-28T16:49:41.073Z,18.40
2022-09-28T16:52:42.384Z,18.30
2022-09-28T16:55:39.940Z,18.30
2022-09-28T16:58:28.919Z,18.30
2022-09-28T17:01:16.365Z,18.30
2022-09-28T17:04:04.032Z,18.30
2022-09-28T17:06:54.425Z,18.30
2022-09-28T17:09:41.624Z,18.30
2022-09-28T17:12:29.592Z,18.20
2022-09-28T17:15:19.542Z,18.20
2022-09-28T17:18:06.997Z,18.10
2022-09-28T17:20:56.786Z,18.10
2022-09-28T17:23:46.245Z,18.10
2022-09-28T17:26:34.812Z,18.10
2022-09-28T17:29:22.184Z,18.10
2022-09-28T17:32:17.629Z,18.00
2022-09-28T17:35:23.552Z,18.00
2022-09-28T17:38:13.639Z,18.00
2022-09-28T17:41:02.447Z,18.00
2022-09-28T17:43:50.302Z,17.90
2022-09-28T17:46:40.700Z,17.90
2022-09-28T17:49:28.524Z,17.80
2022-09-28T17:52:15.989Z,17.80
2022-09-28T17:55:03.287Z,17.70
2022-09-28T17:57:52.411Z,17.70
2022-09-28T18:00:40.280Z,17.70
2022-09-28T18:03:27.800Z,17.70
2022-09-28T18:06:19.728Z,17.60
2022-09-28T18:09:08.783Z,17.60
2022-09-28T18:12:01.481Z,17.50
2022-09-28T18:14:50.058Z,17.50
2022-09-28T18:17:38.251Z,17.50
2022-09-28T18:20:25.742Z,17.40
2022-09-28T18:23:12.998Z,17.40
2022-09-28T18:26:00.142Z,17.40
2022-09-28T18:28:48.549Z,17.30
2022-09-28T18:31:38.370Z,17.30
2022-09-28T18:34:25.829Z,17.20
2022-09-28T18:37:13.401Z,17.20
2022-09-28T18:40:00.591Z,17.20
2022-09-28T18:42:48.718Z,17.10
2022-09-28T18:45:37.351Z,17.10
2022-09-28T18:48:28.014Z,17.10
2022-09-28T18:51:15.185Z,17.00
2022-09-28T18:54:07.257Z,17.00
2022-09-28T18:56:57.185Z,17.00
2022-09-28T18:59:44.714Z,16.90
2022-09-28T19:02:32.118Z,16.90
2022-09-28T19:05:21.062Z,16.90
2022-09-28T19:08:08.317Z,16.90
2022-09-28T19:11:06.793Z,16.90
2022-09-28T19:13:55.272Z,16.90
2022-09-28T19:16:44.601Z,16.90
2022-09-28T19:19:32.365Z,16.80
2022-09-28T19:22:21.401Z,16.80
2022-09-28T19:25:09.710Z,16.80
2022-09-28T19:27:57.230Z,16.80
2022-09-28T19:30:44.764Z,16.80
2022-09-28T19:33:32.493Z,16.80
2022-09-28T19:36:24.227Z,16.80
2022-09-28T19:39:15.924Z,16.80
2022-09-28T19:42:03.107Z,16.80
2022-09-28T19:44:51.158Z,16.70
2022-09-28T19:47:39.038Z,16.70
2022-09-28T19:50:26.346Z,16.70
2022-09-28T19:53:13.968Z,16.70
2022-09-28T19:56:05.063Z,16.70
2022-09-28T19:58:52.846Z,16.60
2022-09-28T20:01:41.979Z,16.60
2022-09-28T20:04:30.034Z,16.60
2022-09-28T20:07:17.369Z,16.60
2022-09-28T20:10:05.426Z,16.60
2022-09-28T20:12:54.552Z,16.60
2022-09-28T20:15:41.932Z,16.60
2022-09-28T20:18:29.286Z,16.50
2022-09-28T20:21:20.194Z,16.50
2022-09-28T20:24:09.364Z,16.50
2022-09-28T20:26:56.978Z,16.50
2022-09-28T20:29:45.791Z,16.50
2022-09-28T20:32:33.405Z,16.50
2022-09-28T20:35:32.105Z,16.50
2022-09-28T20:38:20.092Z,16.50
2022-09-28T20:41:07.924Z,16.50
2022-09-28T20:44:04.137Z,16.50
2022-09-28T20:46:54.064Z,16.50
2022-09-28T20:49:41.580Z,16.50
2022-09-28T20:52:28.817Z,16.50
2022-09-28T20:55:16.403Z,16.40
2022-09-28T20:58:05.233Z,16.40
2022-09-28T21:00:52.876Z,16.40
2022-09-28T21:03:41.649Z,16.40
2022-09-28T21:06:31.573Z,16.40
2022-09-28T21:09:19.089Z,16.40
2022-09-28T21:12:06.854Z,16.30
2022-09-28T21:14:54.456Z,16.30
2022-09-28T21:17:41.701Z,16.30
2022-09-28T21:20:30.325Z,16.30
2022-09-28T21:23:22.768Z,16.30
2022-09-28T21:26:14.383Z,16.30
2022-09-28T21:29:04.755Z,16.30
2022-09-28T21:31:52.200Z,16.30
2022-09-28T21:34:39.441Z,16.30
2022-09-28T21:37:28.089Z,16.30
2022-09-28T21:40:15.777Z,16.30
2022-09-28T21:43:03.449Z,16.30
2022-09-28T21:45:52.120Z,16.30
2022-09-28T21:48:42.019Z,16.30
2022-09-28T21:51:29.802Z,16.30
2022-09-28T21:54:18.790Z,16.30
2022-09-28T21:57:06.913Z,16.30
2022-09-28T21:59:54.172Z,16.20
2022-09-28T22:02:42.312Z,16.20
2022-09-28T22:05:30.233Z,16.20
2022-09-28T22:08:17.763Z,16.20
2022-09-28T22:11:08.957Z,16.20
2022-09-28T22:13:58.990Z,16.20
2022-09-28T22:16:46.303Z,16.20
2022-09-28T22:19:33.672Z,16.20
2022-09-28T22:22:21.320Z,16.20
2022-09-28T22:25:09.894Z,16.20
2022-09-28T22:27:58.781Z,16.20
2022-09-28T22:30:46.903Z,16.10
2022-09-28T22:33:34.566Z,16.10
2022-09-28T22:36:22.123Z,16.10
2022-09-28T22:39:09.541Z,16.10
2022-09-28T22:41:56.741Z,16.10
2022-09-28T22:44:45.461Z,16.10
2022-09-28T22:47:33.406Z,16.10
2022-09-28T22:50:20.636Z,16.10
2022-09-28T22:53:08.079Z,16.00
2022-09-28T22:55:55.996Z,16.00
2022-09-28T22:58:43.669Z,16.00
2022-09-28T23:01:32.713Z,16.00
2022-09-28T23:04:20.872Z,16.00
2022-09-28T23:07:08.533Z,16.00
2022-09-28T23:09:58.223Z,16.00
2022-09-28T23:12:45.733Z,15.90
2022-09-28T23:15:32.987Z,15.90
2022-09-28T23:18:21.717Z,16.00
2022-09-28T23:21:15.202Z,15.90
2022-09-28T23:24:03.267Z,15.90
2022-09-28T23:26:50.873Z,15.90
2022-09-28T23:29:42.634Z,15.80
2022-09-28T23:32:32.010Z,15.80
2022-09-28T23:35:21.485Z,15.80
2022-09-28T23:38:11.687Z,15.80
2022-09-28T23:40:59.039Z,15.70
2022-09-28T23:43:52.575Z,15.70
2022-09-28T23:46:46.137Z,15.70
2022-09-28T23:49:33.523Z,15.70
2022-09-28T23:52:22.464Z,15.70
2022-09-28T23:55:10.441Z,15.60
2022-09-28T23:57:58.704Z,15.60
